Terminal Aerodrome Forecast
Issued by NWS

Home | Current Version | Previous Version | Graphics & Text | Print | Product List | Glossary On
Versions: 1 2 3 4 5 6 7 8 9 10 11 12 13 14 15
000
FTUS43 KMPX 120500
TAFRWF
TAF
KRWF 120524Z 1206/1306 23003KT P6SM FEW050 BKN250
     FM120800 VRB03KT 6SM BR SCT100 BKN250
     FM121100 33004KT 6SM -SHRA BR VCTS BKN050CB OVC100
     FM121500 32005KT P6SM -SHRA BKN050 OVC080
     FM122300 30005KT P6SM SCT050 BKN080=

USA.gov is the U.S. government's official web portal to all federal, state and local government web resources and services.